createdAt,value
2023-03-17T00:00:14.140Z,-0.31
2023-03-17T00:02:49.657Z,-0.27
2023-03-17T00:05:10.277Z,-0.18
2023-03-17T00:07:23.626Z,-0.14
2023-03-17T00:09:36.225Z,-0.09
2023-03-17T00:11:48.945Z,-0.04
2023-03-17T00:14:01.650Z,0.00
2023-03-17T00:16:27.085Z,0.06
2023-03-17T00:18:39.819Z,0.10
2023-03-17T00:20:52.620Z,0.12
2023-03-17T00:23:05.400Z,0.14
2023-03-17T00:25:29.922Z,0.19
2023-03-17T00:27:42.678Z,0.22
2023-03-17T00:29:55.206Z,0.26
2023-03-17T00:32:16.884Z,0.27
2023-03-17T00:34:29.867Z,0.23
2023-03-17T00:36:44.268Z,0.20
2023-03-17T00:38:57.372Z,0.17
2023-03-17T00:41:10.923Z,0.15
2023-03-17T00:43:23.451Z,0.08
2023-03-17T00:45:37.557Z,0.07
2023-03-17T00:47:52.219Z,0.10
2023-03-17T00:50:05.405Z,0.17
2023-03-17T00:52:17.965Z,0.28
2023-03-17T00:54:30.539Z,0.37
2023-03-17T00:56:44.522Z,0.47
2023-03-17T00:58:57.177Z,0.57
2023-03-17T01:01:10.770Z,0.67
2023-03-17T01:03:23.903Z,0.80
2023-03-17T01:05:37.865Z,0.93
2023-03-17T01:07:54.186Z,1.05
2023-03-17T01:10:18.418Z,1.16
2023-03-17T01:12:31.210Z,1.24
2023-03-17T01:14:43.838Z,1.35
2023-03-17T01:16:56.536Z,1.42
2023-03-17T01:19:10.847Z,1.48
2023-03-17T01:21:23.728Z,1.51
2023-03-17T01:23:37.386Z,1.56
2023-03-17T01:25:50.098Z,1.60
2023-03-17T01:28:03.407Z,1.63
2023-03-17T01:30:35.246Z,1.68
2023-03-17T01:32:48.173Z,1.72
2023-03-17T01:35:00.731Z,1.74
2023-03-17T01:37:15.055Z,1.77
2023-03-17T01:39:29.761Z,1.78
2023-03-17T01:41:42.599Z,1.78
2023-03-17T01:43:55.135Z,1.79
2023-03-17T01:46:29.790Z,1.80
2023-03-17T01:48:55.474Z,1.76
2023-03-17T01:51:12.296Z,1.75
2023-03-17T01:53:25.466Z,1.73
2023-03-17T01:55:38.384Z,1.71
2023-03-17T01:57:56.483Z,1.70
2023-03-17T02:00:14.060Z,1.67
2023-03-17T02:02:32.210Z,1.63
2023-03-17T02:04:44.920Z,1.60
2023-03-17T02:06:59.050Z,1.59
2023-03-17T02:09:12.337Z,1.58
2023-03-17T02:11:25.035Z,1.57
2023-03-17T02:13:38.431Z,1.57
2023-03-17T02:15:52.902Z,1.56
2023-03-17T02:18:06.735Z,1.56
2023-03-17T02:20:19.841Z,1.55
2023-03-17T02:22:32.753Z,1.53
2023-03-17T02:24:52.652Z,1.50
2023-03-17T02:27:13.570Z,1.46
2023-03-17T02:29:26.164Z,1.43
2023-03-17T02:31:38.722Z,1.42
2023-03-17T02:33:52.179Z,1.41
2023-03-17T02:36:04.958Z,1.39
2023-03-17T02:38:17.626Z,1.38
2023-03-17T02:40:30.486Z,1.38
2023-03-17T02:42:43.319Z,1.38
2023-03-17T02:44:55.948Z,1.37
2023-03-17T02:47:08.707Z,1.36
2023-03-17T02:49:21.913Z,1.33
2023-03-17T02:51:34.531Z,1.31
2023-03-17T02:53:47.105Z,1.29
2023-03-17T02:55:59.616Z,1.25
2023-03-17T02:58:12.194Z,1.22
2023-03-17T03:00:24.921Z,1.21
2023-03-17T03:02:39.036Z,1.19
2023-03-17T03:04:51.621Z,1.19
2023-03-17T03:07:04.720Z,1.18
2023-03-17T03:09:17.940Z,1.17
2023-03-17T03:11:30.763Z,1.16
2023-03-17T03:13:43.323Z,1.15
2023-03-17T03:15:56.249Z,1.14
2023-03-17T03:18:08.956Z,1.12
2023-03-17T03:20:21.576Z,1.11
2023-03-17T03:22:34.167Z,1.10
2023-03-17T03:24:46.912Z,1.08
2023-03-17T03:26:59.509Z,1.08
2023-03-17T03:29:12.157Z,1.09
2023-03-17T03:31:24.897Z,1.11
2023-03-17T03:33:37.505Z,1.11
2023-03-17T03:35:50.153Z,1.10
2023-03-17T03:38:02.792Z,1.09
2023-03-17T03:40:15.440Z,1.07
2023-03-17T03:42:28.029Z,1.05
2023-03-17T03:44:40.796Z,1.05
2023-03-17T03:46:53.336Z,1.05
2023-03-17T03:49:06.264Z,1.04
2023-03-17T03:51:18.927Z,1.02
2023-03-17T03:53:31.534Z,1.03
2023-03-17T03:55:44.090Z,1.04
2023-03-17T03:57:56.708Z,1.07
2023-03-17T04:00:11.215Z,1.10
2023-03-17T04:02:23.908Z,1.12
2023-03-17T04:04:36.999Z,1.15
2023-03-17T04:06:49.587Z,1.13
2023-03-17T04:09:02.409Z,1.09
2023-03-17T04:11:15.152Z,1.04
2023-03-17T04:13:27.995Z,0.98
2023-03-17T04:15:40.823Z,0.94
2023-03-17T04:17:55.049Z,0.91
2023-03-17T04:20:08.461Z,0.90
2023-03-17T04:22:20.967Z,0.87
2023-03-17T04:24:34.875Z,0.84
2023-03-17T04:26:47.490Z,0.77
2023-03-17T04:29:00.535Z,0.72
2023-03-17T04:31:13.203Z,0.65
2023-03-17T04:33:26.601Z,0.60
2023-03-17T04:35:39.268Z,0.54
2023-03-17T04:37:51.825Z,0.47
2023-03-17T04:40:06.401Z,0.40
2023-03-17T04:42:19.147Z,0.36
2023-03-17T04:44:32.424Z,0.33
2023-03-17T04:46:45.044Z,0.32
2023-03-17T04:48:57.726Z,0.36
2023-03-17T04:51:11.744Z,0.38
2023-03-17T04:53:24.634Z,0.40
2023-03-17T04:55:37.521Z,0.40
2023-03-17T04:57:50.124Z,0.37
2023-03-17T05:00:04.994Z,0.33
2023-03-17T05:02:18.840Z,0.31
2023-03-17T05:04:32.440Z,0.25
2023-03-17T05:06:45.725Z,0.19
2023-03-17T05:08:58.361Z,0.18
2023-03-17T05:11:12.500Z,0.18
2023-03-17T05:13:26.599Z,0.16
2023-03-17T05:15:40.068Z,0.16
2023-03-17T05:17:52.934Z,0.13
2023-03-17T05:20:06.111Z,0.06
2023-03-17T05:22:19.953Z,-0.01
2023-03-17T05:24:32.825Z,-0.09
2023-03-17T05:26:45.612Z,-0.16
2023-03-17T05:28:58.641Z,-0.18
2023-03-17T05:31:11.775Z,-0.17
2023-03-17T05:33:25.034Z,-0.20
2023-03-17T05:35:37.817Z,-0.21
2023-03-17T05:37:50.385Z,-0.18
2023-03-17T05:40:03.454Z,-0.17
2023-03-17T05:42:16.370Z,-0.18
2023-03-17T05:44:29.032Z,-0.23
2023-03-17T05:46:42.023Z,-0.22
2023-03-17T05:48:54.731Z,-0.18
2023-03-17T05:51:07.428Z,-0.14
2023-03-17T05:53:20.030Z,-0.07
2023-03-17T05:55:32.606Z,0.00
2023-03-17T05:57:45.598Z,0.03
2023-03-17T05:59:58.190Z,0.02
2023-03-17T06:02:11.424Z,0.06
2023-03-17T06:04:26.398Z,0.17
2023-03-17T06:06:39.062Z,0.29
2023-03-17T06:08:51.687Z,0.43
2023-03-17T06:11:04.388Z,0.62
2023-03-17T06:13:17.042Z,0.85
2023-03-17T06:15:29.960Z,1.09
2023-03-17T06:17:43.107Z,1.35
2023-03-17T06:19:55.903Z,1.59
2023-03-17T06:22:09.262Z,1.82
2023-03-17T06:24:21.916Z,2.05
2023-03-17T06:26:34.642Z,2.25
2023-03-17T06:28:47.266Z,2.44
2023-03-17T06:31:00.012Z,2.63
2023-03-17T06:33:13.125Z,2.78
2023-03-17T06:35:25.734Z,2.97
2023-03-17T06:37:38.850Z,3.11
2023-03-17T06:39:51.853Z,3.25
2023-03-17T06:42:06.253Z,3.40
2023-03-17T06:44:19.088Z,3.59
2023-03-17T06:46:32.479Z,3.77
2023-03-17T06:48:45.086Z,3.93
2023-03-17T06:50:57.663Z,4.02
2023-03-17T06:53:11.416Z,4.12
2023-03-17T06:55:24.054Z,4.27
2023-03-17T06:57:37.233Z,4.34
2023-03-17T06:59:49.791Z,4.38
2023-03-17T07:02:02.495Z,4.46
2023-03-17T07:04:15.902Z,4.58
2023-03-17T07:06:28.622Z,4.65
2023-03-17T07:08:41.662Z,4.75
2023-03-17T07:10:56.103Z,4.94
2023-03-17T07:13:10.138Z,5.05
2023-03-17T07:15:23.960Z,4.94
2023-03-17T07:17:36.552Z,4.82
2023-03-17T07:19:49.189Z,4.79
2023-03-17T07:22:01.833Z,4.84
2023-03-17T07:24:14.558Z,4.88
2023-03-17T07:26:27.244Z,4.96
2023-03-17T07:28:40.485Z,5.04
2023-03-17T07:30:53.111Z,5.06
2023-03-17T07:33:05.742Z,5.04
2023-03-17T07:35:19.216Z,5.10
2023-03-17T07:37:32.008Z,5.27
2023-03-17T07:39:47.125Z,5.52
2023-03-17T07:41:59.720Z,5.71
2023-03-17T07:44:12.491Z,5.78
2023-03-17T07:46:25.290Z,5.84
2023-03-17T07:48:42.005Z,5.90
2023-03-17T07:50:54.562Z,5.99
2023-03-17T07:53:07.123Z,6.10
2023-03-17T07:55:19.658Z,6.26
2023-03-17T07:57:32.657Z,6.49
2023-03-17T07:59:45.553Z,6.60
2023-03-17T08:01:59.620Z,6.71
2023-03-17T08:04:13.243Z,6.65
2023-03-17T08:06:26.566Z,6.53
2023-03-17T08:08:39.213Z,6.50
2023-03-17T08:10:51.943Z,6.52
2023-03-17T08:13:04.635Z,6.59
2023-03-17T08:15:18.389Z,6.66
2023-03-17T08:17:31.754Z,6.77
2023-03-17T08:19:44.306Z,6.88
2023-03-17T08:21:57.106Z,6.98
2023-03-17T08:24:09.886Z,7.10
2023-03-17T08:26:23.180Z,7.15
2023-03-17T08:28:36.162Z,7.17
2023-03-17T08:30:50.614Z,7.30
2023-03-17T08:33:04.015Z,7.51
2023-03-17T08:35:17.217Z,7.70
2023-03-17T08:37:29.730Z,7.79
2023-03-17T08:39:42.321Z,7.85
2023-03-17T08:41:54.851Z,7.81
2023-03-17T08:44:09.975Z,7.88
2023-03-17T08:46:28.157Z,7.93
2023-03-17T08:48:41.401Z,7.96
2023-03-17T08:50:54.011Z,7.99
2023-03-17T08:53:08.409Z,7.99
2023-03-17T08:55:21.164Z,8.05
2023-03-17T08:57:33.664Z,8.14
2023-03-17T08:59:47.395Z,8.25
2023-03-17T09:02:00.567Z,8.35
2023-03-17T09:04:13.204Z,8.52
2023-03-17T09:06:26.849Z,8.62
2023-03-17T09:08:44.667Z,8.81
2023-03-17T09:10:57.726Z,9.03
2023-03-17T09:13:11.558Z,9.21
2023-03-17T09:15:27.643Z,9.50
2023-03-17T09:17:42.144Z,9.75
2023-03-17T09:19:54.678Z,9.99
2023-03-17T09:22:07.754Z,10.15
2023-03-17T09:24:20.579Z,10.24
2023-03-17T09:26:33.108Z,10.38
2023-03-17T09:28:45.796Z,10.47
2023-03-17T09:31:03.411Z,10.48
2023-03-17T09:33:17.657Z,10.57
2023-03-17T09:35:31.548Z,10.77
2023-03-17T09:37:44.285Z,10.86
2023-03-17T09:39:57.966Z,10.94
2023-03-17T09:42:24.544Z,11.10
2023-03-17T09:45:34.786Z,11.20
2023-03-17T09:48:02.863Z,11.38
2023-03-17T09:50:25.396Z,11.46
2023-03-17T09:52:38.349Z,11.45
2023-03-17T09:54:54.686Z,11.54
2023-03-17T09:57:18.120Z,11.66
2023-03-17T09:59:35.470Z,11.66
2023-03-17T10:01:48.066Z,11.59
2023-03-17T10:04:02.665Z,11.61
2023-03-17T10:06:18.688Z,11.57
2023-03-17T10:08:38.680Z,11.53
2023-03-17T10:10:57.276Z,11.55
2023-03-17T10:13:51.370Z,11.56
2023-03-17T10:16:17.543Z,11.37
2023-03-17T10:18:37.591Z,11.42
2023-03-17T10:21:04.755Z,11.55
2023-03-17T10:23:25.922Z,11.77
2023-03-17T10:25:39.403Z,12.12
2023-03-17T10:28:16.002Z,12.24
2023-03-17T10:30:33.438Z,12.27
2023-03-17T10:32:46.722Z,12.40
2023-03-17T10:34:59.339Z,12.53
2023-03-17T10:37:18.813Z,12.62
2023-03-17T10:39:32.948Z,12.76
2023-03-17T10:41:53.574Z,12.93
2023-03-17T10:44:21.028Z,13.26
2023-03-17T10:46:33.617Z,13.41
2023-03-17T10:48:56.063Z,13.46
2023-03-17T10:51:10.059Z,13.64
2023-03-17T10:53:30.375Z,13.94
2023-03-17T10:55:49.774Z,13.97
2023-03-17T10:58:27.103Z,13.92
2023-03-17T11:00:57.145Z,13.89
2023-03-17T11:03:21.309Z,13.89
2023-03-17T11:05:34.013Z,13.75
2023-03-17T11:07:46.814Z,13.71
2023-03-17T11:10:05.324Z,13.74
2023-03-17T11:12:28.699Z,13.64
2023-03-17T11:14:43.551Z,13.39
2023-03-17T11:17:02.651Z,13.38
2023-03-17T11:19:18.494Z,13.56
2023-03-17T11:21:46.792Z,13.71
2023-03-17T11:24:18.768Z,13.84
2023-03-17T11:26:43.253Z,13.89
2023-03-17T11:29:26.449Z,13.82
2023-03-17T11:31:49.403Z,13.57
2023-03-17T11:34:23.393Z,13.62
2023-03-17T11:37:00.103Z,13.84
2023-03-17T11:39:17.179Z,13.93
2023-03-17T11:41:45.019Z,14.04
2023-03-17T11:44:22.073Z,14.04
2023-03-17T11:46:43.847Z,13.95
2023-03-17T11:49:10.095Z,14.01
2023-03-17T11:51:34.514Z,13.99
2023-03-17T11:54:02.217Z,14.08
2023-03-17T11:56:20.352Z,14.19
2023-03-17T11:58:37.572Z,14.20
2023-03-17T12:00:57.048Z,14.16
2023-03-17T12:03:17.683Z,14.15
2023-03-17T12:05:30.676Z,14.08
2023-03-17T12:07:55.400Z,14.09
2023-03-17T12:10:34.396Z,14.09
2023-03-17T12:12:58.196Z,14.22
2023-03-17T12:15:18.709Z,14.42
2023-03-17T12:17:36.644Z,14.50
2023-03-17T12:20:07.059Z,14.60
2023-03-17T12:22:28.448Z,14.75
2023-03-17T12:24:47.550Z,14.83
2023-03-17T12:27:07.482Z,14.87
2023-03-17T12:29:47.363Z,14.94
2023-03-17T12:32:12.321Z,15.06
2023-03-17T12:34:45.068Z,15.14
2023-03-17T12:36:58.098Z,15.01
2023-03-17T12:39:18.863Z,15.11
2023-03-17T12:41:49.045Z,15.42
2023-03-17T12:44:27.408Z,15.65
2023-03-17T12:46:54.060Z,15.88
2023-03-17T12:49:45.112Z,15.94
2023-03-17T12:52:12.654Z,15.83
2023-03-17T12:54:29.564Z,15.79
2023-03-17T12:56:47.738Z,15.69
2023-03-17T12:59:07.307Z,15.67
2023-03-17T13:01:39.427Z,15.81
2023-03-17T13:04:12.862Z,15.86
2023-03-17T13:06:25.570Z,15.85
2023-03-17T13:08:44.097Z,16.01
2023-03-17T13:11:34.286Z,16.18
2023-03-17T13:13:49.620Z,16.28
2023-03-17T13:16:06.328Z,16.18
2023-03-17T13:18:18.983Z,16.16
2023-03-17T13:20:39.046Z,16.26
2023-03-17T13:23:16.477Z,16.21
2023-03-17T13:25:45.495Z,16.09
2023-03-17T13:28:22.695Z,15.97
2023-03-17T13:30:44.607Z,15.90
2023-03-17T13:33:16.396Z,15.75
2023-03-17T13:35:45.298Z,15.70
2023-03-17T13:38:19.693Z,15.65
2023-03-17T13:40:57.979Z,15.45
2023-03-17T13:43:28.221Z,15.30
2023-03-17T13:45:46.229Z,15.12
2023-03-17T13:48:29.686Z,14.99
2023-03-17T13:50:42.982Z,15.04
2023-03-17T13:53:01.688Z,15.20
2023-03-17T13:55:17.273Z,15.37
2023-03-17T13:57:39.026Z,15.47
2023-03-17T14:00:02.682Z,15.50
2023-03-17T14:02:21.498Z,15.38
2023-03-17T14:04:46.314Z,15.27
2023-03-17T14:07:05.300Z,15.13
2023-03-17T14:09:38.969Z,15.10
2023-03-17T14:11:52.512Z,15.13
2023-03-17T14:14:33.525Z,15.17
2023-03-17T14:17:16.361Z,15.10
2023-03-17T14:19:29.872Z,14.88
2023-03-17T14:21:42.987Z,14.77
2023-03-17T14:23:58.579Z,14.72
2023-03-17T14:26:11.805Z,14.70
2023-03-17T14:28:28.391Z,14.77
2023-03-17T14:30:52.148Z,14.79
2023-03-17T14:33:26.483Z,14.83
2023-03-17T14:35:43.212Z,14.93
2023-03-17T14:37:55.933Z,14.94
2023-03-17T14:40:20.816Z,14.92
2023-03-17T14:42:33.396Z,14.79
2023-03-17T14:44:46.066Z,14.69
2023-03-17T14:47:04.554Z,14.61
2023-03-17T14:49:21.185Z,14.51
2023-03-17T14:51:36.200Z,14.38
2023-03-17T14:53:51.029Z,14.23
2023-03-17T14:56:04.395Z,14.05
2023-03-17T14:58:27.037Z,13.95
2023-03-17T15:00:54.695Z,13.82
2023-03-17T15:03:20.550Z,13.69
2023-03-17T15:05:39.940Z,13.61
2023-03-17T15:07:52.943Z,13.62
2023-03-17T15:10:15.723Z,13.63
2023-03-17T15:12:29.508Z,13.60
2023-03-17T15:14:44.583Z,13.52
2023-03-17T15:16:57.735Z,13.40
2023-03-17T15:19:53.625Z,13.28
2023-03-17T15:22:30.969Z,13.02
2023-03-17T15:24:44.191Z,12.95
2023-03-17T15:27:17.549Z,12.90
2023-03-17T15:29:30.541Z,12.81
2023-03-17T15:31:43.203Z,12.77
2023-03-17T15:33:57.381Z,12.73
2023-03-17T15:36:31.229Z,12.68
2023-03-17T15:38:44.678Z,12.60
2023-03-17T15:40:57.613Z,12.57
2023-03-17T15:43:15.342Z,12.53
2023-03-17T15:45:27.885Z,12.49
2023-03-17T15:47:41.848Z,12.50
2023-03-17T15:50:01.892Z,12.49
2023-03-17T15:52:17.358Z,12.44
2023-03-17T15:54:29.968Z,12.39
2023-03-17T15:56:43.244Z,12.34
2023-03-17T15:58:55.970Z,12.28
2023-03-17T16:01:10.647Z,12.23
2023-03-17T16:03:32.484Z,12.19
2023-03-17T16:05:45.353Z,12.14
2023-03-17T16:07:58.035Z,12.09
2023-03-17T16:10:20.614Z,12.06
2023-03-17T16:12:33.100Z,12.01
2023-03-17T16:14:45.774Z,11.97
2023-03-17T16:16:58.337Z,11.93
2023-03-17T16:19:22.814Z,11.90
2023-03-17T16:21:36.017Z,11.81
2023-03-17T16:23:49.153Z,11.75
2023-03-17T16:26:14.136Z,11.71
2023-03-17T16:28:31.158Z,11.66
2023-03-17T16:30:44.770Z,11.62
2023-03-17T16:33:00.976Z,11.58
2023-03-17T16:35:15.744Z,11.53
2023-03-17T16:37:28.268Z,11.49
2023-03-17T16:39:42.144Z,11.44
2023-03-17T16:41:54.749Z,11.42
2023-03-17T16:44:11.330Z,11.38
2023-03-17T16:46:26.494Z,11.33
2023-03-17T16:48:39.180Z,11.27
2023-03-17T16:50:52.185Z,11.23
2023-03-17T16:53:04.703Z,11.17
2023-03-17T16:55:19.263Z,11.13
2023-03-17T16:57:33.192Z,11.10
2023-03-17T16:59:45.782Z,11.07
2023-03-17T17:01:58.459Z,11.03
2023-03-17T17:04:11.229Z,10.99
2023-03-17T17:06:24.045Z,10.95
2023-03-17T17:08:36.584Z,10.91
2023-03-17T17:10:49.735Z,10.86
2023-03-17T17:13:05.898Z,10.84
2023-03-17T17:15:21.734Z,10.77
2023-03-17T17:17:36.243Z,10.74
2023-03-17T17:19:48.804Z,10.71
2023-03-17T17:22:01.474Z,10.67
2023-03-17T17:24:16.107Z,10.63
2023-03-17T17:26:28.631Z,10.59
2023-03-17T17:28:41.315Z,10.55
2023-03-17T17:30:54.084Z,10.49
2023-03-17T17:33:06.800Z,10.44
2023-03-17T17:35:19.535Z,10.38
2023-03-17T17:37:32.625Z,10.32
2023-03-17T17:39:45.240Z,10.27
2023-03-17T17:41:57.772Z,10.24
2023-03-17T17:44:10.389Z,10.19
2023-03-17T17:46:23.145Z,10.15
2023-03-17T17:48:35.946Z,10.10
2023-03-17T17:50:49.318Z,10.05
2023-03-17T17:53:05.487Z,9.99
2023-03-17T17:55:19.288Z,9.93
2023-03-17T17:57:32.105Z,9.89
2023-03-17T17:59:44.902Z,9.84
2023-03-17T18:01:59.823Z,9.79
2023-03-17T18:04:12.858Z,9.74
2023-03-17T18:06:25.595Z,9.68
2023-03-17T18:08:38.432Z,9.64
2023-03-17T18:10:52.214Z,9.61
2023-03-17T18:13:05.293Z,9.55
2023-03-17T18:15:18.073Z,9.49
2023-03-17T18:17:32.435Z,9.46
2023-03-17T18:19:45.136Z,9.42
2023-03-17T18:21:57.712Z,9.38
2023-03-17T18:24:10.347Z,9.34
2023-03-17T18:26:23.635Z,9.30
2023-03-17T18:28:36.635Z,9.29
2023-03-17T18:30:49.707Z,9.25
2023-03-17T18:33:09.126Z,9.21
2023-03-17T18:35:24.187Z,9.18
2023-03-17T18:37:37.172Z,9.14
2023-03-17T18:40:09.726Z,9.10
2023-03-17T18:42:22.484Z,9.04
2023-03-17T18:44:35.344Z,9.02
2023-03-17T18:46:48.356Z,8.99
2023-03-17T18:49:01.010Z,8.96
2023-03-17T18:51:13.551Z,8.92
2023-03-17T18:53:26.214Z,8.89
2023-03-17T18:55:39.319Z,8.85
2023-03-17T18:57:51.861Z,8.82
2023-03-17T19:00:06.900Z,8.80
2023-03-17T19:02:20.589Z,8.76
2023-03-17T19:04:33.232Z,8.73
2023-03-17T19:06:46.488Z,8.70
2023-03-17T19:08:59.095Z,8.67
2023-03-17T19:11:13.915Z,8.65
2023-03-17T19:13:26.499Z,8.62
2023-03-17T19:15:39.170Z,8.60
2023-03-17T19:17:51.825Z,8.56
2023-03-17T19:20:06.006Z,8.54
2023-03-17T19:22:18.638Z,8.51
2023-03-17T19:24:32.158Z,8.47
2023-03-17T19:26:44.957Z,8.44
2023-03-17T19:28:57.557Z,8.42
2023-03-17T19:31:10.261Z,8.39
2023-03-17T19:33:22.956Z,8.37
2023-03-17T19:35:35.535Z,8.33
2023-03-17T19:37:48.307Z,8.31
2023-03-17T19:40:00.829Z,8.27
2023-03-17T19:42:13.786Z,8.23
2023-03-17T19:44:26.603Z,8.20
2023-03-17T19:46:39.328Z,8.16
2023-03-17T19:48:53.443Z,8.12
2023-03-17T19:51:06.717Z,8.07
2023-03-17T19:53:19.286Z,8.02
2023-03-17T19:55:32.030Z,7.98
2023-03-17T19:57:44.799Z,7.96
2023-03-17T19:59:57.706Z,7.91
2023-03-17T20:02:15.115Z,7.87
2023-03-17T20:04:27.824Z,7.82
2023-03-17T20:06:40.423Z,7.79
2023-03-17T20:08:53.028Z,7.77
2023-03-17T20:11:06.262Z,7.71
2023-03-17T20:13:18.814Z,7.67
2023-03-17T20:15:31.468Z,7.63
2023-03-17T20:17:44.073Z,7.58
2023-03-17T20:19:56.588Z,7.55
2023-03-17T20:22:09.180Z,7.53
2023-03-17T20:24:22.368Z,7.50
2023-03-17T20:26:35.202Z,7.48
2023-03-17T20:28:47.753Z,7.46
2023-03-17T20:31:02.874Z,7.44
2023-03-17T20:33:16.475Z,7.42
2023-03-17T20:35:29.059Z,7.40
2023-03-17T20:37:41.705Z,7.38
2023-03-17T20:39:55.956Z,7.37
2023-03-17T20:42:14.823Z,7.36
2023-03-17T20:44:27.423Z,7.34
2023-03-17T20:46:40.285Z,7.33
2023-03-17T20:48:58.592Z,7.33
2023-03-17T20:51:16.327Z,7.32
2023-03-17T20:53:29.683Z,7.32
2023-03-17T20:55:42.447Z,7.34
2023-03-17T20:57:54.968Z,7.39
2023-03-17T21:00:12.509Z,7.40
2023-03-17T21:02:25.375Z,7.41
2023-03-17T21:04:37.902Z,7.44
2023-03-17T21:06:50.628Z,7.49
2023-03-17T21:09:04.614Z,7.52
2023-03-17T21:11:20.293Z,7.54
2023-03-17T21:13:33.050Z,7.56
2023-03-17T21:15:45.581Z,7.56
2023-03-17T21:17:58.347Z,7.56
2023-03-17T21:20:12.685Z,7.54
2023-03-17T21:22:25.649Z,7.54
2023-03-17T21:24:39.790Z,7.52
2023-03-17T21:26:52.393Z,7.51
2023-03-17T21:29:05.134Z,7.50
2023-03-17T21:31:18.278Z,7.50
2023-03-17T21:33:31.216Z,7.47
2023-03-17T21:35:43.954Z,7.44
2023-03-17T21:37:57.711Z,7.39
2023-03-17T21:40:13.343Z,7.34
2023-03-17T21:42:25.958Z,7.31
2023-03-17T21:44:39.233Z,7.27
2023-03-17T21:46:53.422Z,7.23
2023-03-17T21:49:06.141Z,7.18
2023-03-17T21:51:19.933Z,7.14
2023-03-17T21:53:33.277Z,7.10
2023-03-17T21:55:45.971Z,7.06
2023-03-17T21:57:59.155Z,7.04
2023-03-17T22:00:12.708Z,7.03
2023-03-17T22:02:25.400Z,7.04
2023-03-17T22:04:38.555Z,7.04
2023-03-17T22:06:52.149Z,7.03
2023-03-17T22:09:05.378Z,7.03
2023-03-17T22:11:19.426Z,7.02
2023-03-17T22:13:31.972Z,7.02
2023-03-17T22:15:44.805Z,7.01
2023-03-17T22:17:57.686Z,7.01
2023-03-17T22:20:11.377Z,6.99
2023-03-17T22:22:24.944Z,6.98
2023-03-17T22:24:40.807Z,6.96
2023-03-17T22:26:53.495Z,6.94
2023-03-17T22:29:06.248Z,6.94
2023-03-17T22:31:25.153Z,6.92
2023-03-17T22:33:38.564Z,6.90
2023-03-17T22:35:51.223Z,6.88
2023-03-17T22:38:04.450Z,6.87
2023-03-17T22:40:19.005Z,6.86
2023-03-17T22:42:32.312Z,6.86
2023-03-17T22:44:44.918Z,6.87
2023-03-17T22:46:57.513Z,6.87
2023-03-17T22:49:10.145Z,6.90
2023-03-17T22:51:24.904Z,6.92
2023-03-17T22:53:38.930Z,6.95
2023-03-17T22:55:51.579Z,6.97
2023-03-17T22:58:04.258Z,6.98
2023-03-17T23:00:17.282Z,6.99
2023-03-17T23:02:29.800Z,7.00
2023-03-17T23:04:42.893Z,6.98
2023-03-17T23:06:56.267Z,6.97
2023-03-17T23:09:09.443Z,6.98
2023-03-17T23:11:24.645Z,6.99
2023-03-17T23:13:37.237Z,6.98
2023-03-17T23:15:50.460Z,6.98
2023-03-17T23:18:03.800Z,7.01
2023-03-17T23:20:16.753Z,7.00
2023-03-17T23:22:29.312Z,6.99
2023-03-17T23:24:41.877Z,6.99
2023-03-17T23:26:54.440Z,6.97
2023-03-17T23:29:08.465Z,6.95
2023-03-17T23:31:22.311Z,6.93
2023-03-17T23:33:35.118Z,6.91
2023-03-17T23:35:50.153Z,6.89
2023-03-17T23:38:04.021Z,6.87
2023-03-17T23:40:17.598Z,6.85
2023-03-17T23:42:30.359Z,6.84
2023-03-17T23:44:42.975Z,6.80
2023-03-17T23:46:55.565Z,6.76
2023-03-17T23:49:08.212Z,6.69
2023-03-17T23:51:21.176Z,6.61
2023-03-17T23:53:33.856Z,6.55
2023-03-17T23:55:46.806Z,6.49
2023-03-17T23:58:01.260Z,6.43
